Time;durP1;ratioP1;P1;durP2;ratioP2;P2;SDS_P1;SDS_P2;PMS_P1;PMS_P2;Temp;Humidity;BMP_temperature;BMP_pressure;BME280_temperature;BME280_humidity;BME280_pressure;Samples;Min_cycle;Max_cycle;Signal;HPM_P1;HPM_P2
2024/02/14 00:01:08;;;;;;;27.42;15.48;;;;;;;;;;5022256;28;20510;-63
2024/02/14 00:03:35;;;;;;;33.72;16.17;;;;;;;;;;5022124;28;20029;-63
2024/02/14 00:06:02;;;;;;;28.13;15.95;;;;;;;;;;5021038;28;20090;-63
2024/02/14 00:08:28;;;;;;;33.28;16.27;;;;;;;;;;5021795;28;20056;-63
2024/02/14 00:10:54;;;;;;;28.90;17.13;;;;;;;;;;5021388;28;20045;-63
2024/02/14 00:13:21;;;;;;;34.80;20.70;;;;;;;;;;5020255;28;20128;-63
2024/02/14 00:15:47;;;;;;;31.35;17.45;;;;;;;;;;5016035;28;20069;-63
2024/02/14 00:18:15;;;;;;;31.20;18.98;;;;;;;;;;5015532;28;20055;-63
2024/02/14 00:20:41;;;;;;;31.77;18.13;;;;;;;;;;5023110;28;20084;-63
2024/02/14 00:23:07;;;;;;;29.05;17.50;;;;;;;;;;5024650;28;20117;-63
2024/02/14 00:25:34;;;;;;;31.08;18.13;;;;;;;;;;5020162;28;20482;-63
2024/02/14 00:28:00;;;;;;;34.25;19.30;;;;;;;;;;5019602;28;20413;-63
2024/02/14 00:30:27;;;;;;;36.00;18.10;;;;;;;;;;5011457;28;20049;-63
2024/02/14 00:32:53;;;;;;;34.47;18.83;;;;;;;;;;5014669;28;20046;-63
2024/02/14 00:35:19;;;;;;;36.00;18.70;;;;;;;;;;5016347;28;20042;-63
2024/02/14 00:37:46;;;;;;;36.35;19.20;;;;;;;;;;5013813;28;20066;-63
2024/02/14 00:40:12;;;;;;;36.47;19.13;;;;;;;;;;5015384;28;20409;-63
2024/02/14 00:42:38;;;;;;;32.50;19.08;;;;;;;;;;5020289;28;20067;-63
2024/02/14 00:45:05;;;;;;;37.38;19.55;;;;;;;;;;5014713;28;20041;-63
2024/02/14 00:47:33;;;;;;;32.08;19.27;;;;;;;;;;5021099;28;20033;-63
2024/02/14 00:49:59;;;;;;;30.58;18.27;;;;;;;;;;5019787;28;20084;-63
2024/02/14 00:52:26;;;;;;;34.17;19.27;;;;;;;;;;5010611;28;20045;-63
2024/02/14 00:54:52;;;;;;;31.50;18.67;;;;;;;;;;5012269;28;20111;-63
2024/02/14 00:57:19;;;;;;;32.72;19.35;;;;;;;;;;5027072;28;20136;-63
2024/02/14 00:59:46;;;;;;;33.53;19.25;;;;;;;;;;5018467;28;20037;-63
2024/02/14 01:02:12;;;;;;;30.30;18.95;;;;;;;;;;5021274;28;20057;-63
2024/02/14 01:04:39;;;;;;;34.70;19.92;;;;;;;;;;5024457;28;20033;-63
2024/02/14 01:07:05;;;;;;;42.30;19.90;;;;;;;;;;5024302;28;20107;-63
2024/02/14 01:09:31;;;;;;;30.60;18.65;;;;;;;;;;5014398;28;20486;-63
2024/02/14 01:11:59;;;;;;;30.35;19.35;;;;;;;;;;4994857;28;20045;-63
2024/02/14 01:14:25;;;;;;;33.15;19.88;;;;;;;;;;5015450;28;20515;-63
2024/02/14 01:16:53;;;;;;;32.72;19.20;;;;;;;;;;5017771;28;20060;-63
2024/02/14 01:19:20;;;;;;;33.63;19.17;;;;;;;;;;5015291;28;20663;-63
2024/02/14 01:21:48;;;;;;;36.78;20.25;;;;;;;;;;5015980;28;20187;-63
2024/02/14 01:24:14;;;;;;;30.27;19.33;;;;;;;;;;5017994;28;20048;-63
2024/02/14 01:26:41;;;;;;;29.40;18.70;;;;;;;;;;5022138;28;20457;-63
2024/02/14 01:29:07;;;;;;;30.17;18.90;;;;;;;;;;5016809;28;20124;-63
2024/02/14 01:31:34;;;;;;;31.38;18.92;;;;;;;;;;5004801;28;20056;-63
2024/02/14 01:34:01;;;;;;;32.08;18.88;;;;;;;;;;5024131;28;20057;-64
2024/02/14 01:36:28;;;;;;;29.30;18.15;;;;;;;;;;5021051;28;20608;-63
2024/02/14 01:38:55;;;;;;;29.27;18.98;;;;;;;;;;5019207;28;20038;-64
2024/02/14 01:41:22;;;;;;;31.38;19.00;;;;;;;;;;5014562;28;20057;-63
2024/02/14 01:43:48;;;;;;;30.35;17.63;;;;;;;;;;5018599;28;20068;-63
2024/02/14 01:46:15;;;;;;;32.45;18.58;;;;;;;;;;5020357;28;20478;-63
2024/02/14 01:48:42;;;;;;;32.00;18.95;;;;;;;;;;5017242;28;20272;-63
2024/02/14 01:51:09;;;;;;;32.83;19.40;;;;;;;;;;5015127;28;20033;-63
2024/02/14 01:53:37;;;;;;;29.67;18.05;;;;;;;;;;5021019;28;20389;-63
2024/02/14 01:56:04;;;;;;;30.00;17.40;;;;;;;;;;5020424;28;20045;-63
2024/02/14 01:58:31;;;;;;;30.23;18.08;;;;;;;;;;5020738;28;20057;-63
2024/02/14 02:00:58;;;;;;;31.67;19.08;;;;;;;;;;5018614;28;20077;-63
2024/02/14 02:03:25;;;;;;;31.23;18.25;;;;;;;;;;5019866;28;20117;-63
2024/02/14 02:05:52;;;;;;;32.78;18.20;;;;;;;;;;5014687;28;20048;-63
2024/02/14 02:08:18;;;;;;;36.95;19.08;;;;;;;;;;5014819;28;20057;-63
2024/02/14 02:10:44;;;;;;;37.75;19.33;;;;;;;;;;5013664;28;20128;-63
2024/02/14 02:13:10;;;;;;;36.97;19.60;;;;;;;;;;5012941;28;20386;-63
2024/02/14 02:15:37;;;;;;;38.03;19.95;;;;;;;;;;5015132;28;20038;-63
2024/02/14 02:18:05;;;;;;;42.00;21.35;;;;;;;;;;5016994;28;20429;-63
2024/02/14 02:20:32;;;;;;;41.00;20.80;;;;;;;;;;5022025;28;20049;-63
2024/02/14 02:22:59;;;;;;;40.45;20.50;;;;;;;;;;5019634;28;20049;-63
2024/02/14 02:25:26;;;;;;;41.35;21.02;;;;;;;;;;5019806;28;20542;-63
2024/02/14 02:27:59;;;;;;;41.70;20.73;;;;;;;;;;5020537;28;20056;-63
2024/02/14 02:30:27;;;;;;;39.17;19.70;;;;;;;;;;5011343;28;20171;-63
2024/02/14 02:32:53;;;;;;;40.10;19.95;;;;;;;;;;5012893;28;20095;-63
2024/02/14 02:35:20;;;;;;;43.58;21.25;;;;;;;;;;5015913;28;20052;-63
2024/02/14 02:37:50;;;;;;;40.60;21.08;;;;;;;;;;5017487;28;20057;-63
2024/02/14 02:40:16;;;;;;;41.40;20.70;;;;;;;;;;5001673;28;20057;-63
2024/02/14 02:42:45;;;;;;;45.63;21.85;;;;;;;;;;5019301;28;20516;-63
2024/02/14 02:45:11;;;;;;;46.72;21.13;;;;;;;;;;5019497;28;20052;-63
2024/02/14 02:47:38;;;;;;;44.85;21.83;;;;;;;;;;5018580;28;20117;-63
2024/02/14 02:50:04;;;;;;;46.97;22.08;;;;;;;;;;5018059;28;20485;-63
2024/02/14 02:52:31;;;;;;;42.85;20.25;;;;;;;;;;5011206;28;20061;-63
2024/02/14 02:54:57;;;;;;;43.80;21.05;;;;;;;;;;4994732;28;20049;-63
2024/02/14 02:57:25;;;;;;;49.92;22.50;;;;;;;;;;5019428;28;20057;-63
2024/02/14 02:59:52;;;;;;;42.90;21.05;;;;;;;;;;5017668;28;20053;-63
2024/02/14 03:02:18;;;;;;;45.75;20.98;;;;;;;;;;5013214;28;20064;-63
2024/02/14 03:04:45;;;;;;;40.83;20.00;;;;;;;;;;5019250;28;20052;-63
2024/02/14 03:07:11;;;;;;;41.67;20.55;;;;;;;;;;5016845;28;20119;-63
2024/02/14 03:09:37;;;;;;;43.33;20.73;;;;;;;;;;5018818;28;20050;-63
2024/02/14 03:12:04;;;;;;;47.42;20.10;;;;;;;;;;5019467;28;20327;-63
2024/02/14 03:14:32;;;;;;;45.97;20.88;;;;;;;;;;5015495;28;20386;-63
2024/02/14 03:17:01;;;;;;;44.95;20.80;;;;;;;;;;5014909;28;20055;-63
2024/02/14 03:19:28;;;;;;;45.97;19.92;;;;;;;;;;5016853;28;20120;-63
2024/02/14 03:21:55;;;;;;;51.35;21.63;;;;;;;;;;5016717;28;21142;-63
2024/02/14 03:24:21;;;;;;;44.20;19.70;;;;;;;;;;5016964;28;20041;-63
2024/02/14 03:26:51;;;;;;;41.60;19.17;;;;;;;;;;5020041;28;20088;-63
2024/02/14 03:29:18;;;;;;;44.58;19.70;;;;;;;;;;5022293;28;20076;-63
2024/02/14 03:31:45;;;;;;;46.33;18.40;;;;;;;;;;5018698;28;20510;-63
2024/02/14 03:34:11;;;;;;;37.33;16.83;;;;;;;;;;5018325;28;20053;-63
2024/02/14 03:36:37;;;;;;;39.88;17.20;;;;;;;;;;5020928;28;21151;-63
2024/02/14 03:39:05;;;;;;;33.03;16.10;;;;;;;;;;5020458;28;20041;-63
2024/02/14 03:41:31;;;;;;;37.85;16.98;;;;;;;;;;5016308;28;20095;-63
2024/02/14 03:44:00;;;;;;;39.40;16.80;;;;;;;;;;5017555;28;20487;-64
2024/02/14 03:46:27;;;;;;;33.08;15.35;;;;;;;;;;5015933;28;20061;-63
2024/02/14 03:48:54;;;;;;;41.38;17.67;;;;;;;;;;5016296;28;20560;-63
2024/02/14 03:51:20;;;;;;;43.45;17.90;;;;;;;;;;5016087;28;20049;-63
2024/02/14 03:53:47;;;;;;;40.72;16.85;;;;;;;;;;5018214;28;20045;-63
2024/02/14 03:56:14;;;;;;;33.13;16.45;;;;;;;;;;5017619;28;20049;-63
2024/02/14 03:58:40;;;;;;;35.97;15.07;;;;;;;;;;5019334;28;20154;-63
2024/02/14 04:01:07;;;;;;;33.83;15.25;;;;;;;;;;5017056;28;20045;-63
2024/02/14 04:03:33;;;;;;;35.20;14.13;;;;;;;;;;5012552;28;20049;-63
2024/02/14 04:06:00;;;;;;;30.67;13.77;;;;;;;;;;5016173;28;20057;-63
2024/02/14 04:08:26;;;;;;;31.27;14.02;;;;;;;;;;5013191;28;20073;-63
2024/02/14 04:10:54;;;;;;;29.63;13.73;;;;;;;;;;5013978;28;20446;-63
2024/02/14 04:13:20;;;;;;;32.08;13.25;;;;;;;;;;5002377;28;20048;-63
2024/02/14 04:15:47;;;;;;;26.13;13.20;;;;;;;;;;5010789;28;20489;-64
2024/02/14 04:18:15;;;;;;;31.58;14.38;;;;;;;;;;5015487;28;20093;-63
2024/02/14 04:20:43;;;;;;;31.85;13.43;;;;;;;;;;5021370;28;20524;-63
2024/02/14 04:23:10;;;;;;;29.75;13.50;;;;;;;;;;5019675;28;20497;-63
2024/02/14 04:25:36;;;;;;;28.88;13.52;;;;;;;;;;5019437;28;20178;-63
2024/02/14 04:28:04;;;;;;;25.02;13.13;;;;;;;;;;5020940;28;20058;-63
2024/02/14 04:30:30;;;;;;;28.45;12.93;;;;;;;;;;5021074;28;20045;-63
2024/02/14 04:32:56;;;;;;;25.70;12.32;;;;;;;;;;5017499;28;20048;-63
2024/02/14 04:35:22;;;;;;;29.00;13.02;;;;;;;;;;5021623;28;20046;-63
2024/02/14 04:37:49;;;;;;;38.33;13.70;;;;;;;;;;5024555;28;20045;-63
2024/02/14 04:40:15;;;;;;;40.97;14.45;;;;;;;;;;5019568;28;20038;-63
2024/02/14 04:42:42;;;;;;;40.35;14.95;;;;;;;;;;5020397;28;20654;-63
2024/02/14 04:45:08;;;;;;;37.38;15.45;;;;;;;;;;5018367;28;20122;-64
2024/02/14 04:47:34;;;;;;;34.85;14.85;;;;;;;;;;5024495;28;20077;-64
2024/02/14 04:50:03;;;;;;;41.33;15.73;;;;;;;;;;5018633;28;20042;-64
2024/02/14 04:52:30;;;;;;;39.42;14.32;;;;;;;;;;5023629;28;20045;-64
2024/02/14 04:54:56;;;;;;;45.22;14.65;;;;;;;;;;5020675;28;20049;-63
2024/02/14 04:57:23;;;;;;;42.05;13.73;;;;;;;;;;5015001;28;20489;-63
2024/02/14 04:59:49;;;;;;;45.80;14.30;;;;;;;;;;5018458;28;20109;-63
2024/02/14 05:02:15;;;;;;;46.42;15.20;;;;;;;;;;5039093;28;20394;-63
2024/02/14 05:04:41;;;;;;;46.13;14.40;;;;;;;;;;5020529;28;20095;-63
2024/02/14 05:07:08;;;;;;;49.53;14.52;;;;;;;;;;5019993;28;20049;-63
2024/02/14 05:09:34;;;;;;;58.50;15.35;;;;;;;;;;5023191;28;20189;-63
2024/02/14 05:12:01;;;;;;;49.88;14.23;;;;;;;;;;5012343;28;20061;-63
2024/02/14 05:14:31;;;;;;;54.25;15.90;;;;;;;;;;5009488;28;20107;-63
2024/02/14 05:16:57;;;;;;;53.45;13.85;;;;;;;;;;5011956;28;20049;-63
2024/02/14 05:19:23;;;;;;;43.75;12.05;;;;;;;;;;5013542;28;20065;-63
2024/02/14 05:21:50;;;;;;;35.03;10.23;;;;;;;;;;5038533;28;20040;-63
2024/02/14 05:24:16;;;;;;;40.55;10.20;;;;;;;;;;5023508;28;20405;-63
2024/02/14 05:26:42;;;;;;;31.77;10.32;;;;;;;;;;5019455;28;20061;-64
2024/02/14 05:29:09;;;;;;;40.20;11.77;;;;;;;;;;5017531;28;20446;-63
2024/02/14 05:31:45;;;;;;;36.58;11.40;;;;;;;;;;5018272;28;20123;-64
2024/02/14 05:34:11;;;;;;;43.67;13.13;;;;;;;;;;5020543;28;20060;-63
2024/02/14 05:36:38;;;;;;;48.38;13.48;;;;;;;;;;5021466;28;20042;-63
2024/02/14 05:39:10;;;;;;;57.75;14.07;;;;;;;;;;5022010;28;20056;-63
2024/02/14 05:41:37;;;;;;;67.80;14.90;;;;;;;;;;5020033;28;20042;-63
2024/02/14 05:44:03;;;;;;;72.55;14.65;;;;;;;;;;5020411;28;20045;-63
2024/02/14 05:46:29;;;;;;;71.53;16.50;;;;;;;;;;5020663;28;20085;-63
2024/02/14 05:48:57;;;;;;;70.10;13.80;;;;;;;;;;5021414;28;20072;-63
2024/02/14 05:51:23;;;;;;;68.07;13.18;;;;;;;;;;5018390;28;20081;-64
2024/02/14 05:53:49;;;;;;;72.57;14.65;;;;;;;;;;5015691;28;20045;-63
2024/02/14 05:56:15;;;;;;;77.03;17.95;;;;;;;;;;5019285;28;20050;-63
2024/02/14 05:58:42;;;;;;;90.00;15.02;;;;;;;;;;5023826;28;20382;-64
2024/02/14 06:01:08;;;;;;;77.18;14.90;;;;;;;;;;5023526;28;20064;-64
2024/02/14 06:03:34;;;;;;;73.35;12.02;;;;;;;;;;5014938;28;20463;-63
2024/02/14 06:06:00;;;;;;;77.50;14.18;;;;;;;;;;5015139;28;20049;-63
2024/02/14 06:08:27;;;;;;;68.68;15.02;;;;;;;;;;5012301;28;20053;-63
2024/02/14 06:10:53;;;;;;;52.25;12.30;;;;;;;;;;5009816;28;20123;-63
2024/02/14 06:13:19;;;;;;;81.75;14.40;;;;;;;;;;5011110;28;20532;-63
2024/02/14 06:15:46;;;;;;;71.53;12.38;;;;;;;;;;5011336;28;20100;-63
2024/02/14 06:18:12;;;;;;;78.07;15.13;;;;;;;;;;5011920;28;20046;-63
2024/02/14 06:20:39;;;;;;;77.78;12.48;;;;;;;;;;5016282;28;20050;-63
2024/02/14 06:23:07;;;;;;;81.03;14.43;;;;;;;;;;5015187;28;20097;-63
2024/02/14 06:25:34;;;;;;;82.18;14.75;;;;;;;;;;5013936;28;20056;-63
2024/02/14 06:28:00;;;;;;;61.05;14.82;;;;;;;;;;5014249;28;20088;-63
2024/02/14 06:30:26;;;;;;;90.60;14.65;;;;;;;;;;5012438;28;20041;-63
2024/02/14 06:32:52;;;;;;;79.63;17.02;;;;;;;;;;5011684;28;20331;-63
2024/02/14 06:35:20;;;;;;;77.82;13.10;;;;;;;;;;5013104;28;20042;-63
2024/02/14 06:37:47;;;;;;;67.78;12.60;;;;;;;;;;5012376;28;20048;-63
2024/02/14 06:40:13;;;;;;;70.10;13.27;;;;;;;;;;5023921;28;20140;-63
2024/02/14 06:42:39;;;;;;;81.30;14.75;;;;;;;;;;5017777;28;20628;-63
2024/02/14 06:45:06;;;;;;;91.80;14.27;;;;;;;;;;5015812;28;20046;-63
2024/02/14 06:47:33;;;;;;;68.95;11.18;;;;;;;;;;5011489;28;20167;-63
2024/02/14 06:49:59;;;;;;;81.20;13.20;;;;;;;;;;5010057;28;20049;-63
2024/02/14 06:52:25;;;;;;;76.43;14.15;;;;;;;;;;5023534;28;20082;-63
2024/02/14 06:54:51;;;;;;;85.38;14.20;;;;;;;;;;5024031;28;20128;-63
2024/02/14 06:57:18;;;;;;;82.85;12.35;;;;;;;;;;5022993;28;20041;-62
2024/02/14 06:59:44;;;;;;;74.53;12.75;;;;;;;;;;5023715;28;20540;-63
2024/02/14 07:02:10;;;;;;;87.30;11.32;;;;;;;;;;5020566;28;20041;-63
2024/02/14 07:04:37;;;;;;;83.70;14.63;;;;;;;;;;5022462;28;20064;-63
2024/02/14 07:07:03;;;;;;;86.93;13.65;;;;;;;;;;5024461;28;20465;-63
2024/02/14 07:09:29;;;;;;;80.78;11.43;;;;;;;;;;5023343;28;20072;-63
2024/02/14 07:11:58;;;;;;;93.50;14.05;;;;;;;;;;5027420;28;20057;-63
2024/02/14 07:14:24;;;;;;;74.88;12.55;;;;;;;;;;5027458;28;20417;-63
2024/02/14 07:16:51;;;;;;;80.20;12.00;;;;;;;;;;5023880;28;20089;-63
2024/02/14 07:19:17;;;;;;;86.97;12.63;;;;;;;;;;5007000;28;20184;-63
2024/02/14 07:21:43;;;;;;;82.75;12.20;;;;;;;;;;5022265;28;20445;-63
2024/02/14 07:24:10;;;;;;;84.30;13.50;;;;;;;;;;5022126;28;20073;-63
2024/02/14 07:26:36;;;;;;;91.03;15.55;;;;;;;;;;5019567;28;20157;-63
2024/02/14 07:29:03;;;;;;;96.43;13.15;;;;;;;;;;5024706;28;20049;-63
2024/02/14 07:31:31;;;;;;;87.30;10.50;;;;;;;;;;5026496;28;20072;-63
2024/02/14 07:33:58;;;;;;;90.63;11.70;;;;;;;;;;5025568;28;20045;-63
2024/02/14 07:36:24;;;;;;;97.95;12.80;;;;;;;;;;5023633;28;20124;-63
2024/02/14 07:38:51;;;;;;;84.35;14.05;;;;;;;;;;5023351;28;20038;-63
2024/02/14 07:41:18;;;;;;;68.20;12.25;;;;;;;;;;5019473;28;20034;-63
2024/02/14 07:43:44;;;;;;;93.28;12.27;;;;;;;;;;5017442;28;20045;-63
2024/02/14 07:46:12;;;;;;;90.80;14.23;;;;;;;;;;5020560;28;20122;-63
2024/02/14 07:48:39;;;;;;;77.82;11.40;;;;;;;;;;5020768;28;20045;-63
2024/02/14 07:51:08;;;;;;;77.82;15.07;;;;;;;;;;5024901;28;20525;-63
2024/02/14 07:53:34;;;;;;;81.78;11.70;;;;;;;;;;5025093;28;20052;-63
2024/02/14 07:56:00;;;;;;;72.80;11.15;;;;;;;;;;5029198;28;20044;-63
2024/02/14 07:58:26;;;;;;;82.95;12.88;;;;;;;;;;5025048;28;20064;-63
2024/02/14 08:00:52;;;;;;;63.72;11.98;;;;;;;;;;5026719;28;20388;-63
2024/02/14 08:03:19;;;;;;;75.78;10.80;;;;;;;;;;5024773;28;20081;-63
2024/02/14 08:05:45;;;;;;;69.82;11.98;;;;;;;;;;5025572;28;20053;-63
2024/02/14 08:08:11;;;;;;;76.03;12.50;;;;;;;;;;5029210;28;20049;-63
2024/02/14 08:10:38;;;;;;;91.53;13.85;;;;;;;;;;5027342;28;20036;-63
2024/02/14 08:13:04;;;;;;;84.07;12.30;;;;;;;;;;5026186;28;20378;-63
2024/02/14 08:15:31;;;;;;;83.65;14.35;;;;;;;;;;5027387;28;20528;-63
2024/02/14 08:17:59;;;;;;;80.60;15.35;;;;;;;;;;5021594;28;20049;-63
2024/02/14 08:20:25;;;;;;;68.90;14.50;;;;;;;;;;5022539;28;20041;-63
2024/02/14 08:22:52;;;;;;;89.00;14.90;;;;;;;;;;5023146;28;20093;-63
2024/02/14 08:25:18;;;;;;;73.43;14.65;;;;;;;;;;5021414;28;20091;-63
2024/02/14 08:27:44;;;;;;;93.55;18.58;;;;;;;;;;5024834;28;20093;-62
2024/02/14 08:30:12;;;;;;;76.03;16.05;;;;;;;;;;5027461;28;20095;-61
2024/02/14 08:32:38;;;;;;;81.15;15.88;;;;;;;;;;5026977;28;20047;-63
2024/02/14 08:35:04;;;;;;;73.78;16.13;;;;;;;;;;5029411;28;20044;-63
2024/02/14 08:37:31;;;;;;;86.72;18.30;;;;;;;;;;5028433;28;20060;-62
2024/02/14 08:39:57;;;;;;;76.22;16.30;;;;;;;;;;5027447;28;20049;-63
2024/02/14 08:42:23;;;;;;;84.85;17.33;;;;;;;;;;5030097;28;20165;-62
2024/02/14 08:44:50;;;;;;;89.57;16.65;;;;;;;;;;5028472;28;20037;-62
2024/02/14 08:47:17;;;;;;;87.55;20.00;;;;;;;;;;5022582;28;20053;-62
2024/02/14 08:49:43;;;;;;;81.65;17.63;;;;;;;;;;5029077;28;20132;-63
2024/02/14 08:52:10;;;;;;;105.07;18.52;;;;;;;;;;5037711;28;20044;-62
2024/02/14 08:54:36;;;;;;;90.05;17.90;;;;;;;;;;5040287;28;20138;-62
2024/02/14 08:57:03;;;;;;;96.40;20.42;;;;;;;;;;5042116;28;20083;-62
2024/02/14 08:59:29;;;;;;;89.57;18.80;;;;;;;;;;5043130;28;20037;-62
2024/02/14 09:01:55;;;;;;;102.50;23.13;;;;;;;;;;5038628;28;20393;-62
2024/02/14 09:04:21;;;;;;;84.28;19.27;;;;;;;;;;5041336;28;20064;-62
2024/02/14 09:06:47;;;;;;;83.55;17.67;;;;;;;;;;5036253;28;20052;-62
2024/02/14 09:09:14;;;;;;;75.80;18.23;;;;;;;;;;5039923;28;20112;-62
2024/02/14 09:11:41;;;;;;;78.53;20.23;;;;;;;;;;5042781;28;20159;-62
2024/02/14 09:14:07;;;;;;;84.03;18.45;;;;;;;;;;5041033;28;20049;-62
2024/02/14 09:16:34;;;;;;;70.63;19.85;;;;;;;;;;5034701;28;20481;-62
2024/02/14 09:19:01;;;;;;;82.63;18.52;;;;;;;;;;5038816;28;20124;-62
2024/02/14 09:21:28;;;;;;;77.90;20.20;;;;;;;;;;5027913;28;20488;-62
2024/02/14 09:23:54;;;;;;;74.50;19.15;;;;;;;;;;5039322;28;20116;-62
2024/02/14 09:26:21;;;;;;;85.05;19.17;;;;;;;;;;5037432;28;20144;-62
2024/02/14 09:28:47;;;;;;;65.20;17.40;;;;;;;;;;5043018;28;20126;-62
2024/02/14 09:31:19;;;;;;;82.72;15.98;;;;;;;;;;5040020;28;20084;-62
2024/02/14 09:33:47;;;;;;;76.15;17.33;;;;;;;;;;5040213;28;20065;-62
2024/02/14 09:36:14;;;;;;;77.57;17.70;;;;;;;;;;5036867;28;20046;-62
2024/02/14 09:38:41;;;;;;;76.03;16.58;;;;;;;;;;5040921;28;20093;-62
2024/02/14 09:41:16;;;;;;;68.00;15.73;;;;;;;;;;5031681;28;20037;-62
2024/02/14 09:43:44;;;;;;;70.22;17.08;;;;;;;;;;5038250;28;20085;-62
2024/02/14 09:46:12;;;;;;;63.97;16.42;;;;;;;;;;5039987;28;20430;-62
2024/02/14 09:48:39;;;;;;;64.32;16.05;;;;;;;;;;5034593;28;20080;-62
2024/02/14 09:51:06;;;;;;;72.50;17.83;;;;;;;;;;5042464;28;20102;-62
2024/02/14 09:53:33;;;;;;;65.63;16.33;;;;;;;;;;5039922;28;20094;-62
2024/02/14 09:56:00;;;;;;;76.10;18.63;;;;;;;;;;5037746;28;20052;-62
2024/02/14 09:58:27;;;;;;;57.17;17.73;;;;;;;;;;5039136;28;20132;-62
2024/02/14 10:01:00;;;;;;;56.80;17.05;;;;;;;;;;5041174;28;20041;-62
2024/02/14 10:03:26;;;;;;;72.80;17.08;;;;;;;;;;5039050;28;20041;-62
2024/02/14 10:05:53;;;;;;;78.78;18.25;;;;;;;;;;5040710;28;20452;-62
2024/02/14 10:08:20;;;;;;;58.65;17.65;;;;;;;;;;5042599;28;20142;-62
2024/02/14 10:10:47;;;;;;;60.97;17.33;;;;;;;;;;5037263;28;20113;-62
2024/02/14 10:13:13;;;;;;;63.08;18.23;;;;;;;;;;5039243;28;20099;-62
2024/02/14 10:15:39;;;;;;;61.13;17.50;;;;;;;;;;5037790;28;20112;-62
2024/02/14 10:18:06;;;;;;;53.33;17.30;;;;;;;;;;5040661;28;20059;-62
2024/02/14 10:20:34;;;;;;;51.63;16.20;;;;;;;;;;5039330;28;20042;-62
2024/02/14 10:23:03;;;;;;;58.08;16.20;;;;;;;;;;5036068;28;20049;-62
2024/02/14 10:25:29;;;;;;;45.75;14.27;;;;;;;;;;5038225;28;20072;-62
2024/02/14 10:27:55;;;;;;;52.33;16.45;;;;;;;;;;5040014;28;20404;-62
2024/02/14 10:30:21;;;;;;;52.90;16.45;;;;;;;;;;5038099;28;20045;-62
2024/02/14 10:32:48;;;;;;;53.53;15.45;;;;;;;;;;5033855;28;20053;-62
2024/02/14 10:35:15;;;;;;;38.80;15.50;;;;;;;;;;5045119;28;20067;-62
2024/02/14 10:37:42;;;;;;;47.78;17.05;;;;;;;;;;5040102;28;20095;-62
2024/02/14 10:40:09;;;;;;;54.67;17.02;;;;;;;;;;5040274;28;20045;-62
2024/02/14 10:42:35;;;;;;;55.58;17.70;;;;;;;;;;5041530;28;20048;-62
2024/02/14 10:45:02;;;;;;;59.13;20.13;;;;;;;;;;5042667;28;20056;-62
2024/02/14 10:47:31;;;;;;;71.00;22.70;;;;;;;;;;5045359;28;20042;-62
2024/02/14 10:50:01;;;;;;;59.60;21.58;;;;;;;;;;5041438;28;20042;-62
2024/02/14 10:52:30;;;;;;;66.43;22.23;;;;;;;;;;5018134;28;20150;-62
2024/02/14 10:54:57;;;;;;;81.95;25.67;;;;;;;;;;5036485;28;20544;-62
2024/02/14 10:57:25;;;;;;;60.58;21.52;;;;;;;;;;5030392;28;20753;-63
2024/02/14 10:59:52;;;;;;;60.00;21.90;;;;;;;;;;5032006;28;20397;-62
2024/02/14 11:02:19;;;;;;;77.10;24.73;;;;;;;;;;5031335;28;20056;-62
2024/02/14 11:04:46;;;;;;;55.15;21.10;;;;;;;;;;5030905;28;20049;-62
2024/02/14 11:07:15;;;;;;;58.75;20.52;;;;;;;;;;5032509;28;20184;-62
2024/02/14 11:09:41;;;;;;;62.90;21.90;;;;;;;;;;5026076;28;20049;-62
2024/02/14 11:12:09;;;;;;;56.25;19.92;;;;;;;;;;5024539;28;20034;-78
2024/02/14 11:14:36;;;;;;;55.90;19.90;;;;;;;;;;5026081;28;20080;-63
2024/02/14 11:17:03;;;;;;;50.80;19.85;;;;;;;;;;5026903;28;20046;-63
2024/02/14 11:19:36;;;;;;;51.92;19.48;;;;;;;;;;5024036;28;20477;-63
2024/02/14 11:22:12;;;;;;;49.47;17.35;;;;;;;;;;5027097;28;20059;-63
2024/02/14 11:24:39;;;;;;;52.42;18.23;;;;;;;;;;5028890;28;20091;-63
2024/02/14 11:27:10;;;;;;;50.28;18.77;;;;;;;;;;5027086;28;20048;-63
2024/02/14 11:29:36;;;;;;;44.03;16.75;;;;;;;;;;5027694;28;20132;-63
2024/02/14 11:32:06;;;;;;;44.25;16.35;;;;;;;;;;5029363;28;20070;-63
2024/02/14 11:34:33;;;;;;;45.92;15.23;;;;;;;;;;5018352;28;20085;-62
2024/02/14 11:36:59;;;;;;;43.25;15.23;;;;;;;;;;5026185;28;20053;-62
2024/02/14 11:39:26;;;;;;;42.22;14.55;;;;;;;;;;5029692;28;20084;-63
2024/02/14 11:41:52;;;;;;;36.88;15.10;;;;;;;;;;5023359;28;20041;-63
2024/02/14 11:44:21;;;;;;;41.22;15.32;;;;;;;;;;5027849;28;20044;-63
2024/02/14 11:46:48;;;;;;;35.20;15.60;;;;;;;;;;5026337;28;20041;-63
2024/02/14 11:49:14;;;;;;;39.08;13.93;;;;;;;;;;5026061;28;20493;-63
2024/02/14 11:51:41;;;;;;;29.17;14.70;;;;;;;;;;5026368;28;20150;-63
2024/02/14 11:54:07;;;;;;;44.88;16.38;;;;;;;;;;5020348;28;20044;-63
2024/02/14 11:56:36;;;;;;;46.63;17.52;;;;;;;;;;5024144;28;20038;-63
2024/02/14 11:59:03;;;;;;;45.30;19.20;;;;;;;;;;5023784;28;20551;-63
2024/02/14 12:01:31;;;;;;;48.42;19.65;;;;;;;;;;5020391;28;20487;-63
2024/02/14 12:03:58;;;;;;;42.28;19.13;;;;;;;;;;5025641;28;20489;-63
2024/02/14 12:06:24;;;;;;;44.67;20.55;;;;;;;;;;5023004;28;20052;-63
2024/02/14 12:08:51;;;;;;;50.42;22.75;;;;;;;;;;5020458;28;20052;-63
2024/02/14 12:11:18;;;;;;;49.40;21.92;;;;;;;;;;5020074;28;20128;-63
2024/02/14 12:13:49;;;;;;;61.10;24.40;;;;;;;;;;5006234;28;20056;-62
2024/02/14 12:16:15;;;;;;;49.05;22.83;;;;;;;;;;5017630;28;20130;-62
2024/02/14 12:18:42;;;;;;;48.28;22.33;;;;;;;;;;5019056;28;20115;-62
2024/02/14 12:21:08;;;;;;;48.75;22.00;;;;;;;;;;5022096;28;20067;-62
2024/02/14 12:23:34;;;;;;;45.70;22.95;;;;;;;;;;5025952;28;20065;-62
2024/02/14 12:26:02;;;;;;;47.83;22.40;;;;;;;;;;5026070;28;20053;-62
2024/02/14 12:28:34;;;;;;;52.47;21.17;;;;;;;;;;5023059;28;20137;-62
2024/02/14 12:31:00;;;;;;;45.03;19.83;;;;;;;;;;5024503;28;20044;-62
2024/02/14 12:33:27;;;;;;;44.47;19.45;;;;;;;;;;5021627;28;20046;-62
2024/02/14 12:35:57;;;;;;;44.58;19.88;;;;;;;;;;5021819;28;20041;-62
2024/02/14 12:38:23;;;;;;;44.53;17.45;;;;;;;;;;5024090;28;20117;-62
2024/02/14 12:40:51;;;;;;;37.10;17.92;;;;;;;;;;5024896;28;20054;-62
2024/02/14 12:43:17;;;;;;;42.72;18.48;;;;;;;;;;5026283;28;20053;-62
2024/02/14 12:45:43;;;;;;;41.10;18.08;;;;;;;;;;5028460;28;20073;-62
2024/02/14 12:48:11;;;;;;;44.83;18.60;;;;;;;;;;5027622;28;20049;-62
2024/02/14 12:50:38;;;;;;;53.55;19.80;;;;;;;;;;5022763;28;20048;-62
2024/02/14 12:53:05;;;;;;;43.90;19.73;;;;;;;;;;5020904;28;20049;-62
2024/02/14 12:55:31;;;;;;;43.67;19.90;;;;;;;;;;5024094;28;20504;-62
2024/02/14 12:57:57;;;;;;;48.38;22.42;;;;;;;;;;5024998;28;20134;-62
2024/02/14 13:00:24;;;;;;;48.45;20.33;;;;;;;;;;5027232;28;20148;-62
2024/02/14 13:02:50;;;;;;;47.42;20.80;;;;;;;;;;5025659;28;20041;-62
2024/02/14 13:05:17;;;;;;;45.22;22.08;;;;;;;;;;5015043;28;20506;-62
2024/02/14 13:07:44;;;;;;;49.63;23.02;;;;;;;;;;5024669;28;20041;-62
2024/02/14 13:10:11;;;;;;;47.13;21.42;;;;;;;;;;5023904;28;20037;-62
2024/02/14 13:12:38;;;;;;;48.20;21.55;;;;;;;;;;5025046;28;20112;-62
2024/02/14 13:15:05;;;;;;;48.50;22.08;;;;;;;;;;5022032;28;20405;-62
2024/02/14 13:17:32;;;;;;;54.45;22.13;;;;;;;;;;5028438;28;20048;-62
2024/02/14 13:19:59;;;;;;;58.05;22.40;;;;;;;;;;5024452;28;20643;-62
2024/02/14 13:22:27;;;;;;;55.45;24.08;;;;;;;;;;5025523;28;20038;-62
2024/02/14 13:24:53;;;;;;;51.97;22.95;;;;;;;;;;5024413;28;20513;-62
2024/02/14 13:27:21;;;;;;;57.50;23.80;;;;;;;;;;5021808;28;20558;-64
2024/02/14 13:29:47;;;;;;;55.00;24.85;;;;;;;;;;5023405;28;20504;-62
2024/02/14 13:32:14;;;;;;;47.95;24.73;;;;;;;;;;5024627;28;20044;-61
2024/02/14 13:34:40;;;;;;;49.85;24.85;;;;;;;;;;5023709;28;20049;-62
2024/02/14 13:37:07;;;;;;;58.05;25.98;;;;;;;;;;5024243;28;20038;-62
2024/02/14 13:39:33;;;;;;;55.47;25.65;;;;;;;;;;5026803;28;20375;-62
2024/02/14 13:42:01;;;;;;;56.20;27.17;;;;;;;;;;5022816;28;20139;-62
2024/02/14 13:44:27;;;;;;;61.05;29.77;;;;;;;;;;5027012;28;20064;-63
2024/02/14 13:46:53;;;;;;;64.05;30.13;;;;;;;;;;5025434;28;20121;-62
2024/02/14 13:49:22;;;;;;;73.13;30.95;;;;;;;;;;5024678;28;20052;-62
2024/02/14 13:51:51;;;;;;;64.63;28.88;;;;;;;;;;5017613;28;20077;-63
2024/02/14 13:54:17;;;;;;;56.60;27.52;;;;;;;;;;5020995;28;20382;-62
2024/02/14 13:56:43;;;;;;;46.25;22.13;;;;;;;;;;5024175;28;20408;-62
2024/02/14 13:59:10;;;;;;;38.75;19.60;;;;;;;;;;5021901;28;20473;-62
2024/02/14 14:01:37;;;;;;;37.97;15.35;;;;;;;;;;5026293;28;20065;-63
2024/02/14 14:04:03;;;;;;;25.58;12.85;;;;;;;;;;5023009;28;20049;-62
2024/02/14 14:06:30;;;;;;;30.30;12.18;;;;;;;;;;5023487;28;20057;-62
2024/02/14 14:08:56;;;;;;;28.27;11.55;;;;;;;;;;5023879;28;20075;-62
2024/02/14 14:11:22;;;;;;;26.25;11.95;;;;;;;;;;5024904;28;20124;-62
2024/02/14 14:13:49;;;;;;;23.08;11.32;;;;;;;;;;5025747;28;20532;-63